Flight Track Log - Related Links

Times and Time Zones

All times are in EDT time to prevent confusion due to time zone crossing. See the EJA951 flight status page for this flight to view local times or setup timezone preferences in your user account.

Time Position Orientation Groundspeed Altitude Reporting Facility
EDT Latitude Longitude Course Direction KTS MPH feet Rate Location/Type
Sat 11:31:52 AM 39.5986 -107.0153 235° Southwest 240 276 11,900  Level Denver Center
Sat 11:32:55 AM 39.6567 -107.0869 316° Northwest 347 399 14,600 2,592 Climbing Denver Center
Sat 11:33:57 AM 39.7522 -107.0461 18° North 400 460 17,300 2,565 Climbing Denver Center
Sat 11:34:59 AM 39.8144 -106.9189 57° Northeast 435 501 19,900 2,371 Climbing Denver Center
Sat 11:35:00 AM 39.8793 -106.2793 142° Southeast  Level FlightAware Approximate
Sat 11:36:00 AM 39.7866 -106.1799 131° Southeast  Level FlightAware Approximate
Sat 11:36:01 AM 39.8517 -106.7633 73° East 448 516 22,200  Level Denver Center
Sat 11:37:03 AM 39.8153 -106.6067 107° East 456 525 24,100 1,935 Climbing Denver Center
Sat 11:38:05 AM 39.7367 -106.4314 120° Southeast 464 534 26,200 2,129 Climbing Denver Center
Sat 11:39:07 AM 39.6653 -106.2747 121° Southeast 487 560 28,500 1,935 Climbing Denver Center
Sat 11:40:09 AM 39.5958 -106.1231 121° Southeast 499 574 30,200 1,887 Climbing Denver Center
Sat 11:41:11 AM 39.5222 -105.9600 120° Southeast 518 596 32,400 2,177 Climbing Denver Center
Sat 11:42:13 AM 39.4458 -105.7958 121° Southeast 531 611 34,700 2,032 Climbing Denver Center
Sat 11:43:15 AM 39.3553 -105.6008 121° Southeast 531 611 36,600 1,500 Climbing Denver Center
Sat 11:44:17 AM 39.2761 -105.4328 121° Southeast 548 631 37,800 1,306 Climbing Denver Center
Sat 11:45:19 AM 39.1989 -105.2653 121° Southeast 549 632 39,300 1,452 Climbing Denver Center
Sat 11:46:21 AM 39.1217 -105.1017 121° Southeast 543 625 40,800 823 Climbing Denver Center
Sat 11:47:23 AM 39.0275 -104.9033 121° Southeast 543 625 41,000 96 Climbing Denver Center
Sat 11:48:26 AM 38.9461 -104.7339 122° Southeast 560 644 41,000  Level Denver Center
Sat 11:49:28 AM 38.8628 -104.5583 121° Southeast 577 664 41,000  Level Denver Center
Sat 11:50:30 AM 38.7794 -104.3828 121° Southeast 584 672 41,000  Level Denver Center
Sat 11:51:32 AM 38.6958 -104.2081 121° Southeast 581 669 41,000  Level Denver Center
Sat 11:52:34 AM 38.5939 -104.0122 124° Southeast 575 662 41,000  Level Denver Center
Sat 11:53:36 AM 38.5014 -103.8536 127° Southeast 576 663 41,000  Level Denver Center
Sat 11:54:38 AM 38.3922 -103.6731 128° Southeast 576 663 41,000  Level Denver Center
Sat 11:55:40 AM 38.2986 -103.5147 127° Southeast 577 664 41,000  Level Denver Center
Sat 11:56:42 AM 38.1881 -103.3319 128° Southeast 578 665 41,000  Level Denver Center
Sat 11:57:44 AM 38.0944 -103.1739 127° Southeast 580 667 41,000  Level Denver Center
Sat 11:58:46 AM 37.9992 -103.0189 128° Southeast 580 667 41,000  Level Denver Center
Sat 11:59:48 AM 37.8881 -102.8375 128° Southeast 580 667 41,000  Level Denver Center
Sat 12:00:50 PM 37.8094 -102.7083 128° Southeast 580 667 41,000  Level Denver Center
Sat 12:01:53 PM 37.6964 -102.4847 123° Southeast 591 680 41,000  Level Denver Center
Sat 12:02:55 PM 37.6233 -102.3175 119° Southeast 592 681 41,000  Level Denver Center
Sat 12:03:27 PM 37.5725 -102.2011 119° Southeast 591 680 41,000  Level Kansas City Center
Sat 12:04:28 PM 37.4958 -102.0278 119° Southeast 591 680 41,000  Level Kansas City Center
Sat 12:05:31 PM 37.4061 -101.8253 119° Southeast 592 681 41,000  Level Kansas City Center
Sat 12:06:32 PM 37.3275 -101.6525 120° Southeast 594 684 41,000  Level Kansas City Center
Sat 12:07:36 PM 37.2381 -101.4514 119° Southeast 594 684 41,000  Level Kansas City Center
Sat 12:08:37 PM 37.1600 -101.2789 120° Southeast 594 684 41,000  Level Kansas City Center
Sat 12:09:38 PM 37.0686 -101.0797 120° Southeast 595 685 41,000  Level Kansas City Center
Sat 12:10:42 PM 36.9900 -100.9089 120° Southeast 595 685 41,000  Level Kansas City Center
Sat 12:11:43 PM 36.8992 -100.7086 120° Southeast 595 685 41,000  Level Kansas City Center
Sat 12:12:47 PM 36.8189 -100.5375 120° Southeast 595 685 41,000  Level Kansas City Center
Sat 12:13:48 PM 36.7247 -100.3358 120° Southeast 600 690 41,000  Level Kansas City Center
Sat 12:14:51 PM 36.6508 -100.1733 120° Southeast 600 690 41,000  Level Kansas City Center
Sat 12:15:52 PM 36.5658 -99.9925 120° Southeast 602 693 41,000  Level Kansas City Center
Sat 12:16:55 PM 36.4617 -99.7772 121° Southeast 603 694 41,000  Level Kansas City Center
Sat 12:17:56 PM 36.3758 -99.5972 121° Southeast 603 694 41,000 -435 Level Kansas City Center
Sat 12:18:59 PM 36.2914 -99.4208 121° Southeast 600 690 40,100 -1,355 Descending Kansas City Center
Sat 12:20:00 PM 36.2100 -99.2528 121° Southeast 600 690 38,200 -2,557 Descending Kansas City Center
Sat 12:21:01 PM 36.1086 -99.0422 121° Southeast 597 687 34,900 -2,976 Descending Kansas City Center
Sat 12:22:05 PM 36.0261 -98.8728 121° Southeast 581 669 32,000 -2,736 Descending Kansas City Center
Sat 12:23:06 PM 35.9458 -98.7106 121° Southeast 562 647 29,200 -2,656 Descending Kansas City Center
Sat 12:24:07 PM 35.8725 -98.5603 121° Southeast 546 628 26,600 -2,855 Descending Kansas City Center
Sat 12:25:10 PM 35.7983 -98.4081 121° Southeast 524 603 23,300 -3,194 Descending Kansas City Center
Sat 12:26:11 PM 35.7272 -98.2658 122° Southeast 478 550 20,000 -3,024 Descending Kansas City Center
Sat 12:27:15 PM 35.6514 -98.1136 121° Southeast 442 509 17,000 -2,903 Descending Kansas City Center
Sat 12:28:15 PM 35.5819 -98.0050 128° Southeast 411 473 14,000 -3,026 Descending Kansas City Center
Sat 12:29:12 PM 35.5061 -97.9111 135° Southeast 388 447 11,100 -2,292 Descending Fort Worth Center
Sat 12:29:44 PM 35.4792 -97.8744 132° Southeast 378 435 10,600 -1,475 Descending Fort Worth Center
Sat 12:30:13 PM 35.4442 -97.8289 133° Southeast 311 358 9,600 -2,032 Descending Fort Worth Center
Sat 12:30:46 PM 35.4117 -97.7839 132° Southeast 301 346 8,500 -1,869 Descending Fort Worth Center
Sat 12:31:14 PM 35.3872 -97.7536 135° Southeast 270 311 7,700 -1,645 Descending Fort Worth Center
Sat 12:31:48 PM 35.3583 -97.7172 134° Southeast 283 326 6,800 -1,700 Descending Fort Worth Center
Sat 12:32:14 PM 35.3322 -97.6961 147° Southeast 238 274 6,000 -1,742 Descending Fort Worth Center
Sat 12:32:50 PM 35.3169 -97.6614 118° Southeast 192 221 5,000 -1,672 Descending Fort Worth Center
Sat 12:33:15 PM 35.3131 -97.6403 103° East 161 185 4,300 -1,355 Descending Fort Worth Center
Sat 12:33:52 PM 35.3139 -97.6136 88° East 152 175 3,600 -1,500 Descending Fort Worth Center
Sat 12:34:15 PM 35.3144 -97.5964 88° East 108 124 2,800 -1,355 Descending Fort Worth Center
Sat 12:34:54 PM 35.3369 -97.5894 14° North 121 139 2,200 -896 Descending Fort Worth Center
Sat 12:35:22 PM 35.3517 -97.5900 358° North 116 133 1,800 -677 Descending Fort Worth Center
Sat 12:35:56 PM 35.3697 -97.5897 North 121 139 1,500 -529 Descending Fort Worth Center
Sat 12:38:00 PM 35.3833 -97.6000 18° North  Level FlightAware Approximate

Login

Don't have an account? Register now (free) for customized features, flight alerts, and more!